Time,TemperatureF,DewpointF,PressureIn,WindDirection,WindDirectionDegrees,WindSpeedMPH,WindSpeedGustMPH,Humidity,HourlyPrecipIn,Conditions,Clouds,dailyrainin,SolarRadiationWatts/m^2,SoftwareType,DateUTC
2013-09-16 00:22:00,73.0,36.0,-100.00,SSW,202,15.0,19.0,26,0.00,,,0.00,1.000000,,2013-09-16 07:22:00,
2013-09-16 00:32:00,73.0,36.0,-100.00,SSW,202,15.0,19.0,26,0.00,,,0.00,1.000000,,2013-09-16 07:32:00,
2013-09-16 00:43:00,73.0,36.0,-100.00,SSW,202,15.0,19.0,26,0.00,,,0.00,1.000000,,2013-09-16 07:43:00,
2013-09-16 00:52:00,73.0,36.0,-100.00,SSW,202,15.0,19.0,26,0.00,,,0.00,1.000000,,2013-09-16 07:52:00,
2013-09-16 01:22:00,71.0,39.0,-100.00,SSW,201,13.0,20.0,31,0.00,,,0.00,1.000000,,2013-09-16 08:22:00,
2013-09-16 01:32:00,71.0,39.0,-100.00,SSW,201,13.0,20.0,31,0.00,,,0.00,1.000000,,2013-09-16 08:32:00,
2013-09-16 01:42:00,71.0,39.0,-100.00,SSW,201,13.0,20.0,31,0.00,,,0.00,1.000000,,2013-09-16 08:42:00,
2013-09-16 01:52:00,71.0,39.0,-100.00,SSW,201,13.0,20.0,31,0.00,,,0.00,1.000000,,2013-09-16 08:52:00,
2013-09-16 02:22:00,72.0,36.0,-100.00,SSW,200,15.0,19.0,27,0.00,,,0.00,1.000000,,2013-09-16 09:22:00,
2013-09-16 02:33:00,72.0,36.0,-100.00,SSW,200,15.0,19.0,27,0.00,,,0.00,1.000000,,2013-09-16 09:33:00,
2013-09-16 02:43:00,72.0,36.0,-100.00,SSW,200,15.0,19.0,27,0.00,,,0.00,1.000000,,2013-09-16 09:43:00,
2013-09-16 02:53:00,72.0,36.0,-100.00,SSW,200,15.0,19.0,27,0.00,,,0.00,1.000000,,2013-09-16 09:53:00,
2013-09-16 03:42:00,72.0,33.0,-100.00,SSW,196,13.0,19.0,24,0.00,,,0.00,1.000000,,2013-09-16 10:42:00,
2013-09-16 03:53:00,72.0,33.0,-100.00,SSW,196,13.0,19.0,24,0.00,,,0.00,1.000000,,2013-09-16 10:53:00,
2013-09-16 04:22:00,71.0,35.0,-100.00,SSW,197,14.0,20.0,27,0.00,,,0.00,1.000000,,2013-09-16 11:22:00,
2013-09-16 04:33:00,71.0,35.0,-100.00,SSW,197,14.0,20.0,27,0.00,,,0.00,1.000000,,2013-09-16 11:33:00,
2013-09-16 04:42:00,71.0,35.0,-100.00,SSW,197,14.0,20.0,27,0.00,,,0.00,1.000000,,2013-09-16 11:42:00,
2013-09-16 04:52:00,71.0,35.0,-100.00,SSW,197,14.0,20.0,27,0.00,,,0.00,1.000000,,2013-09-16 11:52:00,
2013-09-16 05:42:00,70.0,34.0,-100.00,SSW,197,10.0,17.0,27,0.00,,,0.00,1.000000,,2013-09-16 12:42:00,
2013-09-16 05:52:00,70.0,34.0,-100.00,SSW,197,10.0,17.0,27,0.00,,,0.00,1.000000,,2013-09-16 12:52:00,
2013-09-16 06:42:00,70.0,33.0,-100.00,SSW,192,9.0,12.0,25,0.00,,,0.00,1.000000,,2013-09-16 13:42:00,
2013-09-16 06:52:00,70.0,33.0,-100.00,SSW,192,9.0,12.0,25,0.00,,,0.00,1.000000,,2013-09-16 13:52:00,
2013-09-16 07:21:00,70.0,34.0,-100.00,South,186,9.0,12.0,27,0.00,,,-99.99,7.000000,,2013-09-16 14:21:00,
2013-09-16 07:32:00,70.0,34.0,-100.00,South,186,9.0,12.0,27,0.00,,,-99.99,7.000000,,2013-09-16 14:32:00,
2013-09-16 07:42:00,70.0,34.0,-100.00,South,186,9.0,12.0,27,0.00,,,-99.99,7.000000,,2013-09-16 14:42:00,
2013-09-16 07:52:00,70.0,34.0,-100.00,South,186,9.0,12.0,27,0.00,,,-99.99,7.000000,,2013-09-16 14:52:00,
2013-09-16 08:43:00,72.0,33.0,-100.00,South,178,9.0,13.0,24,0.00,,,0.00,168.000000,,2013-09-16 15:43:00,
2013-09-16 08:53:00,72.0,33.0,-100.00,South,178,9.0,13.0,24,0.00,,,0.00,168.000000,,2013-09-16 15:53:00,
2013-09-16 09:43:00,77.0,29.0,-100.00,South,181,10.0,14.0,17,0.00,,,0.00,411.000000,,2013-09-16 16:43:00,
2013-09-16 09:52:00,77.0,29.0,-100.00,South,181,10.0,14.0,17,0.00,,,0.00,411.000000,,2013-09-16 16:52:00,
2013-09-16 10:23:00,80.0,30.0,-100.00,South,179,12.0,15.0,16,0.00,,,0.00,471.000000,,2013-09-16 17:23:00,
2013-09-16 10:33:00,80.0,30.0,-100.00,South,179,12.0,15.0,16,0.00,,,0.00,471.000000,,2013-09-16 17:33:00,
2013-09-16 10:42:00,80.0,30.0,-100.00,South,179,12.0,15.0,16,0.00,,,0.00,471.000000,,2013-09-16 17:42:00,
2013-09-16 10:53:00,80.0,30.0,-100.00,South,179,12.0,15.0,16,0.00,,,0.00,471.000000,,2013-09-16 17:53:00,
2013-09-16 11:22:00,83.0,31.0,-100.00,South,178,14.0,20.0,15,0.00,,,-99.99,707.000000,,2013-09-16 18:22:00,
2013-09-16 11:32:00,83.0,31.0,-100.00,South,178,14.0,20.0,15,0.00,,,-99.99,707.000000,,2013-09-16 18:32:00,
2013-09-16 11:42:00,83.0,31.0,-100.00,South,178,14.0,20.0,15,0.00,,,-99.99,707.000000,,2013-09-16 18:42:00,
2013-09-16 11:52:00,83.0,31.0,-100.00,South,178,14.0,20.0,15,0.00,,,-99.99,707.000000,,2013-09-16 18:52:00,
2013-09-16 12:22:00,85.0,30.0,-100.00,South,175,15.0,24.0,14,0.00,,,-99.99,875.000000,,2013-09-16 19:22:00,
2013-09-16 12:32:00,85.0,30.0,-100.00,South,175,15.0,24.0,14,0.00,,,-99.99,875.000000,,2013-09-16 19:32:00,
2013-09-16 12:42:00,85.0,30.0,-100.00,South,175,15.0,24.0,14,0.00,,,-99.99,875.000000,,2013-09-16 19:42:00,
2013-09-16 12:53:00,85.0,30.0,-100.00,South,175,15.0,24.0,14,0.00,,,-99.99,875.000000,,2013-09-16 19:53:00,
2013-09-16 13:22:00,85.0,32.0,-100.00,South,188,17.0,26.0,15,0.00,,,0.00,1025.000000,,2013-09-16 20:22:00,
2013-09-16 13:32:00,85.0,32.0,-100.00,South,188,17.0,26.0,15,0.00,,,0.00,1025.000000,,2013-09-16 20:32:00,
2013-09-16 13:42:00,85.0,32.0,-100.00,South,188,17.0,26.0,15,0.00,,,0.00,1025.000000,,2013-09-16 20:42:00,
2013-09-16 13:52:00,85.0,32.0,-100.00,South,188,17.0,26.0,15,0.00,,,0.00,1025.000000,,2013-09-16 20:52:00,
2013-09-16 14:21:00,87.0,35.0,-100.00,South,179,18.0,28.0,16,0.00,,,0.00,1035.000000,,2013-09-16 21:21:00,
2013-09-16 14:34:00,87.0,35.0,-100.00,South,179,18.0,28.0,16,0.00,,,0.00,1035.000000,,2013-09-16 21:34:00,
2013-09-16 14:44:00,87.0,35.0,-100.00,South,179,18.0,28.0,16,0.00,,,0.00,1035.000000,,2013-09-16 21:44:00,
2013-09-16 14:55:00,87.0,35.0,-100.00,South,179,18.0,28.0,16,0.00,,,0.00,1035.000000,,2013-09-16 21:55:00,
2013-09-16 15:42:00,87.0,37.0,-100.00,South,178,19.0,30.0,17,0.00,,,0.00,950.000000,,2013-09-16 22:42:00,
2013-09-16 15:53:00,87.0,37.0,-100.00,South,178,19.0,30.0,17,0.00,,,0.00,950.000000,,2013-09-16 22:53:00,
2013-09-16 16:22:00,84.0,37.0,-100.00,South,189,16.0,30.0,19,0.00,,,0.00,792.000000,,2013-09-16 23:22:00,
2013-09-16 16:34:00,84.0,37.0,-100.00,South,189,16.0,30.0,19,0.00,,,0.00,792.000000,,2013-09-16 23:34:00,
2013-09-16 16:43:00,84.0,37.0,-100.00,South,189,16.0,30.0,19,0.00,,,0.00,792.000000,,2013-09-16 23:43:00,
2013-09-16 16:52:00,84.0,37.0,-100.00,South,189,16.0,30.0,19,0.00,,,0.00,792.000000,,2013-09-16 23:52:00,
2013-09-16 17:21:00,82.0,37.0,-100.00,SSW,192,17.0,27.0,20,0.00,,,0.00,581.000000,,2013-09-17 00:21:00,
2013-09-16 17:32:00,82.0,37.0,-100.00,SSW,192,17.0,27.0,20,0.00,,,0.00,581.000000,,2013-09-17 00:32:00,
2013-09-16 17:42:00,82.0,37.0,-100.00,SSW,192,17.0,27.0,20,0.00,,,0.00,581.000000,,2013-09-17 00:42:00,
2013-09-16 17:52:00,82.0,37.0,-100.00,SSW,192,17.0,27.0,20,0.00,,,0.00,581.000000,,2013-09-17 00:52:00,
2013-09-16 18:42:00,78.0,35.0,-100.00,SSW,192,19.0,27.0,21,0.00,,,0.00,336.000000,,2013-09-17 01:42:00,
2013-09-16 18:52:00,78.0,35.0,-100.00,SSW,192,19.0,27.0,21,0.00,,,0.00,336.000000,,2013-09-17 01:52:00,
2013-09-16 19:22:00,74.0,33.0,-100.00,SSW,196,18.0,27.0,22,0.00,,,0.00,20.000000,,2013-09-17 02:22:00,
2013-09-16 19:32:00,74.0,33.0,-100.00,SSW,196,18.0,27.0,22,0.00,,,0.00,20.000000,,2013-09-17 02:32:00,
2013-09-16 19:42:00,74.0,33.0,-100.00,SSW,196,18.0,27.0,22,0.00,,,0.00,20.000000,,2013-09-17 02:42:00,
2013-09-16 19:52:00,74.0,33.0,-100.00,SSW,196,18.0,27.0,22,0.00,,,0.00,20.000000,,2013-09-17 02:52:00,
2013-09-16 20:45:00,72.0,29.0,-100.00,SSW,193,16.0,28.0,20,0.00,,,0.00,1.000000,,2013-09-17 03:45:00,
2013-09-16 20:54:00,72.0,29.0,-100.00,SSW,193,16.0,28.0,20,0.00,,,0.00,1.000000,,2013-09-17 03:54:00,
2013-09-16 21:24:00,70.0,27.0,-100.00,South,191,15.0,21.0,20,0.00,,,0.00,1.000000,,2013-09-17 04:24:00,
2013-09-16 21:34:00,70.0,27.0,-100.00,South,191,15.0,21.0,20,0.00,,,0.00,1.000000,,2013-09-17 04:34:00,
2013-09-16 21:44:00,70.0,27.0,-100.00,South,191,15.0,21.0,20,0.00,,,0.00,1.000000,,2013-09-17 04:44:00,
2013-09-16 21:53:00,70.0,27.0,-100.00,South,191,15.0,21.0,20,0.00,,,0.00,1.000000,,2013-09-17 04:53:00,
2013-09-16 22:23:00,69.0,31.0,-100.00,South,190,17.0,22.0,24,0.00,,,0.00,1.000000,,2013-09-17 05:23:00,
2013-09-16 22:34:00,69.0,31.0,-100.00,South,190,17.0,22.0,24,0.00,,,0.00,1.000000,,2013-09-17 05:34:00,
2013-09-16 22:42:00,69.0,31.0,-100.00,South,190,17.0,22.0,24,0.00,,,0.00,1.000000,,2013-09-17 05:42:00,
2013-09-16 22:52:00,69.0,31.0,-100.00,South,190,17.0,22.0,24,0.00,,,0.00,1.000000,,2013-09-17 05:52:00,
2013-09-16 23:22:00,68.0,29.0,-100.00,SSW,192,17.0,23.0,23,0.00,,,0.00,1.000000,,2013-09-17 06:22:00,
2013-09-16 23:32:00,68.0,29.0,-100.00,SSW,192,17.0,23.0,23,0.00,,,0.00,1.000000,,2013-09-17 06:32:00,
2013-09-16 23:42:00,68.0,29.0,-100.00,SSW,192,17.0,23.0,23,0.00,,,0.00,1.000000,,2013-09-17 06:42:00,
2013-09-16 23:52:00,68.0,29.0,-100.00,SSW,192,17.0,23.0,23,0.00,,,0.00,1.000000,,2013-09-17 06:52:00,